Time;durP1;ratioP1;P1;durP2;ratioP2;P2;SDS_P1;SDS_P2;PMS_P1;PMS_P2;Temp;Humidity;BMP_temperature;BMP_pressure;BME280_temperature;BME280_humidity;BME280_pressure;Samples;Min_cycle;Max_cycle;Signal;HPM_P1;HPM_P2
2023/12/10 00:02:21;;;;;;;37.55;6.00;;;10.80;99.90;;;;;;4968398;28;20419;-65
2023/12/10 00:04:47;;;;;;;55.92;8.48;;;10.80;99.90;;;;;;4966193;28;20038;-66
2023/12/10 00:07:12;;;;;;;56.15;6.50;;;10.80;99.90;;;;;;4968676;28;20409;-66
2023/12/10 00:09:38;;;;;;;42.22;5.28;;;10.90;99.90;;;;;;4963131;28;21249;-66
2023/12/10 00:12:04;;;;;;;52.83;6.82;;;10.90;99.90;;;;;;4969897;28;20030;-66
2023/12/10 00:14:29;;;;;;;49.45;5.90;;;10.90;99.90;;;;;;4970123;28;20489;-65
2023/12/10 00:16:55;;;;;;;52.30;6.40;;;10.90;99.90;;;;;;4969463;28;20031;-65
2023/12/10 00:19:20;;;;;;;53.28;6.60;;;10.90;99.90;;;;;;4967829;28;20031;-65
2023/12/10 00:21:46;;;;;;;54.72;6.28;;;10.90;99.90;;;;;;4968442;28;20034;-65
2023/12/10 00:24:12;;;;;;;46.72;5.80;;;10.80;99.90;;;;;;4969336;28;20023;-67
2023/12/10 00:26:37;;;;;;;45.33;5.90;;;10.80;99.90;;;;;;4969253;28;20030;-65
2023/12/10 00:29:03;;;;;;;44.10;7.10;;;10.80;99.90;;;;;;4969999;28;20035;-65
2023/12/10 00:31:29;;;;;;;41.67;5.55;;;10.70;99.90;;;;;;4969379;28;20054;-64
2023/12/10 00:33:54;;;;;;;45.60;6.43;;;10.70;99.90;;;;;;4968553;28;20031;-65
2023/12/10 00:36:20;;;;;;;41.75;6.03;;;10.80;99.90;;;;;;4965053;28;20086;-65
2023/12/10 00:38:45;;;;;;;49.63;6.60;;;10.90;99.90;;;;;;4968910;28;20458;-66
2023/12/10 00:41:12;;;;;;;49.15;6.50;;;10.90;99.90;;;;;;4968108;28;20679;-65
2023/12/10 00:43:41;;;;;;;48.85;7.18;;;10.90;99.90;;;;;;4969927;28;20397;-65
2023/12/10 00:46:07;;;;;;;42.08;6.18;;;10.90;99.90;;;;;;4969702;28;20059;-65
2023/12/10 00:48:34;;;;;;;33.83;5.30;;;10.80;99.90;;;;;;4966874;28;20493;-64
2023/12/10 00:51:00;;;;;;;54.33;8.20;;;10.90;99.90;;;;;;4969462;28;20035;-64
2023/12/10 00:53:25;;;;;;;58.22;7.45;;;10.90;99.90;;;;;;4965965;28;20030;-64
2023/12/10 00:55:51;;;;;;;44.45;5.90;;;10.90;99.90;;;;;;4965082;28;20034;-64
2023/12/10 00:58:17;;;;;;;50.83;6.20;;;11.00;99.90;;;;;;4970453;28;20501;-65
2023/12/10 01:00:42;;;;;;;50.72;7.68;;;10.90;99.90;;;;;;4969486;28;20120;-64
2023/12/10 01:03:08;;;;;;;51.08;6.82;;;10.80;99.90;;;;;;4966140;28;20098;-66
2023/12/10 01:05:34;;;;;;;45.90;6.15;;;10.80;99.90;;;;;;4966834;28;20038;-65
2023/12/10 01:07:59;;;;;;;56.63;7.90;;;10.80;99.90;;;;;;4966676;28;20130;-65
2023/12/10 01:10:25;;;;;;;51.75;7.05;;;10.90;99.90;;;;;;4966880;28;20045;-64
2023/12/10 01:12:50;;;;;;;47.33;6.63;;;10.90;99.90;;;;;;4970696;28;20127;-65
2023/12/10 01:15:17;;;;;;;47.65;6.40;;;10.90;99.90;;;;;;4970102;28;20023;-65
2023/12/10 01:17:43;;;;;;;43.75;5.70;;;11.00;99.90;;;;;;4968422;28;20486;-65
2023/12/10 01:20:09;;;;;;;45.90;5.13;;;10.90;99.90;;;;;;4962838;28;20038;-64
2023/12/10 01:22:34;;;;;;;37.25;5.38;;;10.90;99.90;;;;;;4967832;28;20031;-65
2023/12/10 01:25:01;;;;;;;35.92;6.32;;;11.00;99.90;;;;;;4964986;28;20035;-64
2023/12/10 01:27:26;;;;;;;46.13;6.70;;;10.90;99.90;;;;;;4965032;28;20053;-65
2023/12/10 01:29:52;;;;;;;41.78;5.53;;;11.00;99.90;;;;;;4968724;28;20521;-66
2023/12/10 01:32:18;;;;;;;47.53;6.55;;;10.90;99.90;;;;;;4968141;28;20374;-67
2023/12/10 01:34:44;;;;;;;37.85;6.50;;;11.00;99.90;;;;;;4968668;28;20082;-66
2023/12/10 01:37:09;;;;;;;52.38;7.45;;;11.10;99.90;;;;;;4967622;28;20023;-65
2023/12/10 01:39:35;;;;;;;49.50;5.13;;;11.00;99.90;;;;;;4966934;28;20038;-66
2023/12/10 01:42:01;;;;;;;32.38;5.85;;;11.00;99.90;;;;;;4968423;28;20031;-65
2023/12/10 01:44:26;;;;;;;49.15;5.72;;;11.00;99.90;;;;;;4962093;28;20023;-66
2023/12/10 01:46:54;;;;;;;43.15;5.70;;;11.00;99.90;;;;;;4970844;28;20493;-66
2023/12/10 01:49:21;;;;;;;45.90;5.13;;;11.00;99.90;;;;;;4965633;28;20050;-66
2023/12/10 01:51:47;;;;;;;34.33;4.55;;;10.90;99.90;;;;;;4973027;28;20014;-66
2023/12/10 01:54:22;;;;;;;40.45;4.97;;;10.90;99.90;;;;;;4964776;28;20019;-65
2023/12/10 01:56:52;;;;;;;43.85;4.65;;;10.90;99.90;;;;;;4974193;28;20026;-66
2023/12/10 01:59:19;;;;;;;36.15;4.45;;;10.90;99.90;;;;;;4970207;28;20077;-65
2023/12/10 02:01:48;;;;;;;32.33;4.28;;;10.90;99.90;;;;;;4967186;28;20072;-65
2023/12/10 02:04:15;;;;;;;35.72;5.30;;;11.00;99.90;;;;;;4968024;28;20034;-66
2023/12/10 02:06:42;;;;;;;40.33;4.82;;;10.90;99.90;;;;;;4968921;28;20453;-65
2023/12/10 02:09:16;;;;;;;44.42;4.65;;;10.90;99.90;;;;;;4971467;28;20026;-64
2023/12/10 02:11:43;;;;;;;42.60;5.25;;;11.00;99.90;;;;;;4967276;28;20026;-66
2023/12/10 02:14:09;;;;;;;38.72;4.93;;;10.90;99.90;;;;;;4967732;28;20019;-66
2023/12/10 02:16:34;;;;;;;37.70;4.63;;;10.90;99.90;;;;;;4971628;28;20079;-64
2023/12/10 02:19:00;;;;;;;36.80;4.28;;;10.90;99.90;;;;;;4970540;28;20485;-66
2023/12/10 02:21:27;;;;;;;35.38;6.05;;;10.90;99.90;;;;;;4973514;28;20392;-65
2023/12/10 02:24:03;;;;;;;34.10;4.75;;;10.80;99.90;;;;;;4968512;28;20024;-64
2023/12/10 02:26:29;;;;;;;42.53;4.80;;;10.90;99.90;;;;;;4966456;28;20073;-65
2023/12/10 02:28:55;;;;;;;34.03;4.47;;;10.90;99.90;;;;;;4973539;28;20025;-65
2023/12/10 02:31:20;;;;;;;39.83;5.28;;;10.90;99.90;;;;;;4970941;28;20027;-65
2023/12/10 02:33:46;;;;;;;35.15;3.85;;;10.90;99.90;;;;;;4972056;28;20029;-66
2023/12/10 02:36:12;;;;;;;32.75;4.63;;;10.90;99.90;;;;;;4969452;28;20054;-65
2023/12/10 02:38:38;;;;;;;27.50;4.07;;;10.90;99.90;;;;;;4970836;28;20050;-65
2023/12/10 02:41:05;;;;;;;21.40;3.53;;;10.90;99.90;;;;;;4970131;28;20500;-65
2023/12/10 02:43:31;;;;;;;35.28;5.13;;;10.90;99.90;;;;;;4974520;28;20571;-63
2023/12/10 02:45:56;;;;;;;25.77;3.53;;;10.80;99.90;;;;;;4970900;28;20121;-63
2023/12/10 02:48:22;;;;;;;27.40;3.97;;;10.80;99.90;;;;;;4971020;28;20573;-64
2023/12/10 02:50:51;;;;;;;28.02;5.93;;;10.80;99.90;;;;;;4968150;28;20055;-65
2023/12/10 02:53:17;;;;;;;33.92;3.95;;;10.80;99.90;;;;;;4970042;28;20019;-65
2023/12/10 02:55:43;;;;;;;34.00;3.95;;;10.80;99.90;;;;;;4972328;28;20030;-66
2023/12/10 02:58:08;;;;;;;25.08;3.97;;;10.70;99.90;;;;;;4970969;28;20547;-65
2023/12/10 03:00:34;;;;;;;45.65;4.60;;;10.70;99.90;;;;;;4971251;28;20314;-65
2023/12/10 03:03:00;;;;;;;30.58;4.57;;;10.60;99.90;;;;;;4971627;28;20416;-65
2023/12/10 03:05:26;;;;;;;31.65;4.15;;;10.60;99.90;;;;;;4971223;28;20023;-65
2023/12/10 03:07:52;;;;;;;33.17;4.15;;;10.60;99.90;;;;;;4972877;28;20109;-65
2023/12/10 03:10:18;;;;;;;28.65;4.30;;;10.70;99.90;;;;;;4969867;28;20468;-64
2023/12/10 03:12:43;;;;;;;33.97;3.65;;;10.60;99.90;;;;;;4970634;28;20030;-64
2023/12/10 03:15:09;;;;;;;30.98;4.32;;;10.70;99.90;;;;;;4968343;28;20031;-65
2023/12/10 03:17:35;;;;;;;31.00;4.25;;;10.70;99.90;;;;;;4967227;28;20106;-65
2023/12/10 03:20:00;;;;;;;43.38;4.72;;;10.80;99.90;;;;;;4970183;28;20080;-65
2023/12/10 03:22:26;;;;;;;39.95;5.45;;;10.70;99.90;;;;;;4966752;28;20047;-63
2023/12/10 03:24:51;;;;;;;28.27;3.97;;;10.60;99.90;;;;;;4971523;28;20110;-64
2023/12/10 03:27:17;;;;;;;29.60;4.60;;;10.50;99.90;;;;;;4970317;28;20077;-65
2023/12/10 03:29:43;;;;;;;24.40;3.97;;;10.50;99.90;;;;;;4969931;28;20039;-65
2023/12/10 03:32:08;;;;;;;25.65;3.63;;;10.40;99.90;;;;;;4970615;28;20031;-64
2023/12/10 03:34:34;;;;;;;36.17;3.95;;;10.30;99.90;;;;;;4969432;28;20027;-64
2023/12/10 03:37:00;;;;;;;31.60;3.75;;;10.20;99.90;;;;;;4964415;28;20039;-65
2023/12/10 03:39:25;;;;;;;33.78;4.40;;;10.20;99.90;;;;;;4968108;28;20430;-64
2023/12/10 03:41:51;;;;;;;25.52;3.25;;;10.10;99.90;;;;;;4968471;28;20027;-65
2023/12/10 03:44:17;;;;;;;43.92;5.65;;;10.20;99.90;;;;;;4968082;28;20035;-64
2023/12/10 03:46:42;;;;;;;43.40;5.85;;;10.20;99.90;;;;;;4964502;28;20034;-65
2023/12/10 03:49:08;;;;;;;28.48;4.57;;;10.40;99.90;;;;;;4968394;28;20030;-66
2023/12/10 03:51:33;;;;;;;22.85;4.07;;;10.40;99.90;;;;;;4970706;28;20062;-65
2023/12/10 03:54:00;;;;;;;40.20;5.00;;;10.50;99.90;;;;;;4968271;28;20105;-66
2023/12/10 03:56:25;;;;;;;38.90;4.32;;;10.50;99.90;;;;;;4971970;28;20022;-65
2023/12/10 03:58:51;;;;;;;42.78;5.13;;;10.40;99.90;;;;;;4971717;28;20366;-65
2023/12/10 04:01:17;;;;;;;35.58;4.30;;;10.30;99.90;;;;;;4966955;28;20026;-65
2023/12/10 04:03:43;;;;;;;35.47;3.92;;;10.30;99.90;;;;;;4969889;28;20106;-64
2023/12/10 04:06:08;;;;;;;33.97;4.18;;;10.20;99.90;;;;;;4970327;28;20454;-65
2023/12/10 04:08:34;;;;;;;40.80;4.93;;;10.10;99.90;;;;;;4968536;28;20246;-65
2023/12/10 04:10:59;;;;;;;31.92;4.80;;;10.00;99.90;;;;;;4965850;28;20039;-66
2023/12/10 04:13:25;;;;;;;39.60;4.70;;;9.90;99.90;;;;;;4969728;28;20489;-65
2023/12/10 04:15:50;;;;;;;26.60;4.72;;;9.90;99.90;;;;;;4960430;28;20365;-65
2023/12/10 04:18:16;;;;;;;41.17;5.85;;;9.80;99.90;;;;;;4970875;28;20335;-66
2023/12/10 04:20:42;;;;;;;34.22;4.22;;;9.80;99.90;;;;;;4967119;28;20044;-66
2023/12/10 04:23:08;;;;;;;40.90;4.40;;;9.70;99.90;;;;;;4964854;28;20139;-65
2023/12/10 04:25:34;;;;;;;33.20;4.38;;;9.60;99.90;;;;;;4961229;28;20524;-63
2023/12/10 04:27:59;;;;;;;49.08;5.55;;;9.60;99.90;;;;;;4968253;28;20106;-64
2023/12/10 04:30:26;;;;;;;30.60;5.47;;;9.70;99.90;;;;;;4969909;28;20034;-64
2023/12/10 04:32:52;;;;;;;38.47;4.75;;;9.70;99.90;;;;;;4970391;28;20027;-64
2023/12/10 04:35:18;;;;;;;37.33;4.97;;;9.70;99.90;;;;;;4965078;28;20030;-62
2023/12/10 04:37:44;;;;;;;35.45;4.35;;;9.70;99.90;;;;;;4970492;28;20030;-64
2023/12/10 04:40:10;;;;;;;42.42;3.83;;;9.80;99.90;;;;;;4969449;28;20027;-63
2023/12/10 04:42:37;;;;;;;36.58;4.13;;;9.80;99.90;;;;;;4966466;28;20392;-64
2023/12/10 04:45:02;;;;;;;44.45;5.22;;;9.80;99.90;;;;;;4967057;28;20117;-63
2023/12/10 04:47:28;;;;;;;32.72;5.03;;;9.80;99.90;;;;;;4970639;28;20213;-65
2023/12/10 04:49:54;;;;;;;35.55;5.38;;;9.80;99.90;;;;;;4969504;28;20034;-67
2023/12/10 04:52:20;;;;;;;28.77;4.50;;;10.00;99.90;;;;;;4969819;28;20070;-66
2023/12/10 04:54:45;;;;;;;38.00;6.15;;;9.90;99.90;;;;;;4968821;28;20019;-64
2023/12/10 04:57:11;;;;;;;29.30;4.32;;;10.00;99.90;;;;;;4964257;28;20409;-67
2023/12/10 04:59:36;;;;;;;34.33;4.43;;;10.10;99.90;;;;;;4968515;28;20035;-67
2023/12/10 05:02:02;;;;;;;39.72;5.63;;;10.10;99.90;;;;;;4967221;28;20030;-65
2023/12/10 05:04:27;;;;;;;34.00;5.53;;;10.20;99.90;;;;;;4966178;28;20042;-64
2023/12/10 05:06:53;;;;;;;31.40;4.30;;;10.20;99.90;;;;;;4964313;28;20085;-63
2023/12/10 05:09:18;;;;;;;34.63;5.45;;;10.30;99.90;;;;;;4967998;28;20107;-64
2023/12/10 05:11:44;;;;;;;39.42;4.60;;;10.40;99.90;;;;;;4969546;28;20035;-63
2023/12/10 05:14:09;;;;;;;44.00;4.68;;;10.50;99.90;;;;;;4969975;28;20026;-64
2023/12/10 05:16:35;;;;;;;31.73;4.32;;;10.50;99.90;;;;;;4971700;28;20038;-63
2023/12/10 05:19:00;;;;;;;43.53;4.82;;;10.50;99.90;;;;;;4968047;28;20037;-65
2023/12/10 05:21:26;;;;;;;33.70;4.82;;;10.40;99.90;;;;;;4965784;28;20031;-65
2023/12/10 05:23:51;;;;;;;32.50;4.70;;;10.50;99.90;;;;;;4968540;28;20156;-66
2023/12/10 05:26:17;;;;;;;29.08;4.05;;;10.50;99.90;;;;;;4964869;28;20022;-65
2023/12/10 05:28:42;;;;;;;32.30;4.28;;;10.50;99.90;;;;;;4969240;28;20034;-64
2023/12/10 05:31:08;;;;;;;32.35;3.88;;;10.60;99.90;;;;;;4969686;28;20404;-64
2023/12/10 05:33:34;;;;;;;37.90;5.28;;;10.60;99.90;;;;;;4969127;28;20031;-64
2023/12/10 05:35:59;;;;;;;34.22;4.57;;;10.60;99.90;;;;;;4969288;28;20019;-63
2023/12/10 05:38:25;;;;;;;32.97;4.47;;;10.50;99.90;;;;;;4970299;28;20037;-64
2023/12/10 05:40:51;;;;;;;29.80;4.30;;;10.60;99.90;;;;;;4969690;28;20060;-65
2023/12/10 05:43:16;;;;;;;36.20;4.68;;;10.60;99.90;;;;;;4967847;28;20054;-64
2023/12/10 05:45:42;;;;;;;27.52;3.95;;;10.60;99.90;;;;;;4967199;28;20031;-64
2023/12/10 05:48:07;;;;;;;39.80;5.28;;;10.60;99.90;;;;;;4966052;28;20439;-63
2023/12/10 05:50:33;;;;;;;30.25;4.18;;;10.60;99.90;;;;;;4964769;28;20040;-64
2023/12/10 05:52:58;;;;;;;28.27;5.20;;;10.60;99.90;;;;;;4970767;28;20078;-64
2023/12/10 05:55:24;;;;;;;41.78;4.85;;;10.60;99.90;;;;;;4966500;28;20035;-64
2023/12/10 05:57:50;;;;;;;23.00;4.40;;;10.70;99.90;;;;;;4967508;28;20482;-63
2023/12/10 06:00:16;;;;;;;29.30;4.43;;;10.60;99.90;;;;;;4968550;28;20042;-65
2023/12/10 06:02:42;;;;;;;39.03;5.20;;;10.60;99.90;;;;;;4969011;28;20038;-65
2023/12/10 06:05:08;;;;;;;30.02;4.43;;;10.70;99.90;;;;;;4969155;28;20102;-64
2023/12/10 06:07:33;;;;;;;32.90;3.58;;;10.60;99.90;;;;;;4969091;28;20480;-64
2023/12/10 06:09:59;;;;;;;37.42;4.28;;;10.50;99.90;;;;;;4966878;28;20469;-64
2023/12/10 06:12:24;;;;;;;35.78;4.53;;;10.50;99.90;;;;;;4967123;28;20039;-64
2023/12/10 06:14:50;;;;;;;31.55;4.22;;;10.50;99.90;;;;;;4968646;28;20042;-64
2023/12/10 06:17:15;;;;;;;29.20;3.92;;;10.60;99.90;;;;;;4968527;28;20042;-63
2023/12/10 06:19:41;;;;;;;59.92;5.40;;;10.60;99.90;;;;;;4968137;28;20508;-64
2023/12/10 06:22:06;;;;;;;41.22;4.35;;;10.70;99.90;;;;;;4968903;28;20058;-65
2023/12/10 06:24:32;;;;;;;30.58;4.57;;;10.60;99.90;;;;;;4967721;28;20035;-64
2023/12/10 06:26:57;;;;;;;40.25;4.78;;;10.60;99.90;;;;;;4966769;28;20519;-65
2023/12/10 06:29:23;;;;;;;36.17;4.22;;;10.70;99.90;;;;;;4968545;28;20050;-65
2023/12/10 06:31:49;;;;;;;28.02;4.15;;;10.60;99.90;;;;;;4969620;28;20023;-65
2023/12/10 06:34:14;;;;;;;36.92;4.88;;;10.60;99.90;;;;;;4971224;28;20496;-64
2023/12/10 06:36:40;;;;;;;25.67;3.90;;;10.70;99.90;;;;;;4972627;28;20033;-65
2023/12/10 06:39:06;;;;;;;28.80;4.13;;;10.60;99.90;;;;;;4973429;28;20026;-63
2023/12/10 06:41:32;;;;;;;40.28;4.47;;;10.60;99.90;;;;;;4967976;28;20022;-65
2023/12/10 06:43:57;;;;;;;29.50;3.45;;;10.70;99.90;;;;;;4978158;28;20109;-65
2023/12/10 06:46:23;;;;;;;37.40;4.72;;;10.70;99.90;;;;;;4965613;28;20090;-65
2023/12/10 06:48:48;;;;;;;32.03;3.38;;;10.70;99.90;;;;;;4971806;28;20501;-64
2023/12/10 06:51:14;;;;;;;29.13;4.03;;;10.70;99.90;;;;;;4971370;28;20041;-65
2023/12/10 06:53:40;;;;;;;29.70;3.50;;;10.60;99.90;;;;;;4971043;28;20037;-64
2023/12/10 06:56:07;;;;;;;24.42;3.83;;;10.60;99.90;;;;;;4963391;28;20019;-64
2023/12/10 06:58:32;;;;;;;36.00;4.20;;;10.60;99.90;;;;;;4971868;28;20046;-64
2023/12/10 07:00:58;;;;;;;24.10;3.03;;;10.60;99.90;;;;;;4971791;28;20031;-64
2023/12/10 07:03:23;;;;;;;26.42;4.30;;;10.60;99.90;;;;;;4970987;28;20038;-65
2023/12/10 07:05:49;;;;;;;29.77;4.47;;;10.70;99.90;;;;;;4972568;28;20035;-64
2023/12/10 07:08:14;;;;;;;24.63;3.95;;;10.70;99.90;;;;;;4968495;28;20089;-64
2023/12/10 07:10:40;;;;;;;27.25;3.85;;;10.70;99.90;;;;;;4966500;28;20030;-64
2023/12/10 07:13:05;;;;;;;25.23;3.58;;;10.80;99.90;;;;;;4971250;28;20027;-66
2023/12/10 07:15:31;;;;;;;28.52;4.03;;;10.80;99.90;;;;;;4968680;28;20041;-64
2023/12/10 07:17:56;;;;;;;45.53;3.97;;;10.70;99.90;;;;;;4965898;28;20494;-64
2023/12/10 07:20:22;;;;;;;36.08;5.05;;;10.70;99.90;;;;;;4971202;28;20058;-65
2023/12/10 07:22:48;;;;;;;28.83;4.15;;;10.70;99.90;;;;;;4970610;28;20065;-66
2023/12/10 07:25:14;;;;;;;29.48;4.35;;;10.80;99.90;;;;;;4963384;28;20474;-66
2023/12/10 07:27:39;;;;;;;23.33;3.67;;;10.80;99.90;;;;;;4968933;28;20114;-65
2023/12/10 07:30:07;;;;;;;32.88;4.53;;;10.70;99.90;;;;;;4965086;28;20038;-64
2023/12/10 07:32:33;;;;;;;38.05;4.65;;;10.70;99.90;;;;;;4968464;28;20489;-65
2023/12/10 07:34:58;;;;;;;33.97;4.13;;;10.70;99.90;;;;;;4966638;28;20031;-65
2023/12/10 07:37:24;;;;;;;32.00;4.45;;;10.70;99.90;;;;;;4971846;28;20069;-64
2023/12/10 07:39:49;;;;;;;34.00;4.25;;;10.60;99.90;;;;;;4964995;28;20027;-64
2023/12/10 07:42:15;;;;;;;40.83;4.63;;;10.60;99.90;;;;;;4969029;28;20413;-64
2023/12/10 07:44:40;;;;;;;39.25;5.03;;;10.60;99.90;;;;;;4970252;28;20046;-64
2023/12/10 07:47:06;;;;;;;31.33;4.07;;;10.60;99.90;;;;;;4970885;28;20031;-65
2023/12/10 07:49:32;;;;;;;25.80;3.88;;;10.60;99.90;;;;;;4970150;28;20049;-65
2023/12/10 07:51:57;;;;;;;36.15;4.82;;;10.60;99.90;;;;;;4970932;28;20046;-64
2023/12/10 07:54:23;;;;;;;30.90;3.38;;;10.60;99.90;;;;;;4970391;28;20026;-64
2023/12/10 07:56:48;;;;;;;33.15;3.90;;;10.60;99.90;;;;;;4968831;28;20049;-64
2023/12/10 07:59:14;;;;;;;38.60;4.40;;;10.60;99.90;;;;;;4969831;28;20424;-64
2023/12/10 08:01:40;;;;;;;41.22;4.30;;;10.60;99.90;;;;;;4967866;28;20428;-64
2023/12/10 08:04:06;;;;;;;36.35;4.45;;;10.50;99.90;;;;;;4970504;28;20031;-64
2023/12/10 08:06:31;;;;;;;40.47;4.15;;;10.50;99.90;;;;;;4970957;28;20011;-65
2023/12/10 08:08:57;;;;;;;42.25;4.65;;;10.60;99.90;;;;;;4968838;28;20085;-63
2023/12/10 08:11:23;;;;;;;29.67;4.28;;;10.50;99.90;;;;;;4967893;28;20174;-64
2023/12/10 08:13:51;;;;;;;22.63;3.97;;;10.50;99.90;;;;;;4969037;28;20031;-65
2023/12/10 08:16:17;;;;;;;43.25;4.80;;;10.50;99.90;;;;;;4969763;28;20049;-65
2023/12/10 08:18:42;;;;;;;36.85;4.20;;;10.50;99.90;;;;;;4968944;28;20445;-64
2023/12/10 08:21:08;;;;;;;34.42;4.28;;;10.50;99.90;;;;;;4962562;28;20074;-64
2023/12/10 08:23:33;;;;;;;34.42;3.58;;;10.50;99.90;;;;;;4970272;28;20022;-64
2023/12/10 08:26:00;;;;;;;41.80;4.93;;;10.50;99.90;;;;;;4964078;28;20444;-65
2023/12/10 08:28:25;;;;;;;30.35;3.55;;;10.50;99.90;;;;;;4970543;28;20460;-65
2023/12/10 08:30:51;;;;;;;33.60;4.10;;;10.50;99.90;;;;;;4967548;28;20350;-65
2023/12/10 08:33:16;;;;;;;24.83;2.92;;;10.50;99.90;;;;;;4967113;28;20106;-65
2023/12/10 08:35:42;;;;;;;27.20;3.67;;;10.60;99.90;;;;;;4966519;28;20062;-65
2023/12/10 08:38:07;;;;;;;32.28;3.67;;;10.50;99.90;;;;;;4971033;28;20489;-65
2023/12/10 08:40:33;;;;;;;33.83;4.13;;;10.50;99.90;;;;;;4966264;28;20038;-66
2023/12/10 08:42:58;;;;;;;30.52;3.42;;;10.50;99.90;;;;;;4964560;28;20026;-65
2023/12/10 08:45:24;;;;;;;30.50;5.18;;;10.50;99.90;;;;;;4969841;28;20046;-62
2023/12/10 08:47:49;;;;;;;31.10;3.55;;;10.50;99.90;;;;;;4969662;28;20071;-62
2023/12/10 08:50:15;;;;;;;33.30;4.47;;;10.50;99.90;;;;;;4966964;28;20086;-62
2023/12/10 08:52:40;;;;;;;39.20;4.50;;;10.70;99.90;;;;;;4970013;28;20030;-62
2023/12/10 08:55:06;;;;;;;33.33;3.78;;;10.70;99.90;;;;;;4962947;28;20059;-62
2023/12/10 08:57:32;;;;;;;34.65;5.40;;;10.70;99.90;;;;;;4956717;28;20030;-62
2023/12/10 09:00:00;;;;;;;39.50;3.85;;;10.70;99.90;;;;;;4962049;28;20374;-63
2023/12/10 09:02:26;;;;;;;36.60;3.72;;;10.70;99.90;;;;;;4966471;28;20030;-63
2023/12/10 09:04:51;;;;;;;33.88;4.53;;;10.70;99.90;;;;;;4966642;28;20023;-62
2023/12/10 09:07:17;;;;;;;31.15;4.20;;;10.70;99.90;;;;;;4969065;28;20285;-62
2023/12/10 09:09:42;;;;;;;34.22;4.00;;;10.70;99.90;;;;;;4967337;28;20045;-61
2023/12/10 09:12:08;;;;;;;32.15;3.95;;;10.80;99.90;;;;;;4965172;28;20019;-63
2023/12/10 09:14:35;;;;;;;32.72;5.10;;;10.90;99.90;;;;;;4969203;28;20037;-62
2023/12/10 09:17:01;;;;;;;29.02;4.40;;;10.90;99.90;;;;;;4958149;28;20026;-62
2023/12/10 09:19:29;;;;;;;29.70;4.85;;;10.90;99.90;;;;;;4952739;28;20031;-63
2023/12/10 09:21:54;;;;;;;43.03;5.63;;;10.90;99.90;;;;;;4962152;28;20520;-62
2023/12/10 09:24:22;;;;;;;36.30;3.35;;;11.00;99.90;;;;;;4960734;28;20035;-61
2023/12/10 09:26:47;;;;;;;27.75;3.33;;;11.00;99.90;;;;;;4961473;28;20031;-62
2023/12/10 09:29:13;;;;;;;28.70;3.65;;;11.00;99.90;;;;;;4961670;28;20030;-62
2023/12/10 09:31:39;;;;;;;31.67;3.85;;;11.00;99.90;;;;;;4961020;28;20030;-62
2023/12/10 09:34:04;;;;;;;31.33;3.50;;;11.00;99.90;;;;;;4958935;28;20413;-63
2023/12/10 09:36:30;;;;;;;20.77;3.17;;;11.10;99.90;;;;;;4958215;28;20101;-61
2023/12/10 09:38:55;;;;;;;34.83;5.32;;;11.10;99.90;;;;;;4962631;28;20018;-62
2023/12/10 09:41:21;;;;;;;23.48;3.60;;;11.10;99.90;;;;;;4964106;28;20105;-63
2023/12/10 09:43:46;;;;;;;25.58;3.72;;;11.10;99.90;;;;;;4955491;28;20178;-62
2023/12/10 09:46:13;;;;;;;29.42;3.63;;;11.10;99.90;;;;;;4965850;28;20081;-63
2023/12/10 09:48:41;;;;;;;35.58;4.07;;;11.10;99.90;;;;;;4965240;28;20038;-61
2023/12/10 09:51:06;;;;;;;36.67;4.82;;;11.10;99.90;;;;;;4963678;28;20022;-62
2023/12/10 09:53:32;;;;;;;30.73;4.07;;;11.00;99.90;;;;;;4959954;28;20385;-61
2023/12/10 09:55:57;;;;;;;30.83;3.90;;;11.00;99.90;;;;;;4962749;28;20026;-62
2023/12/10 09:58:23;;;;;;;23.73;4.03;;;11.10;99.90;;;;;;4963880;28;20043;-63
2023/12/10 10:00:50;;;;;;;25.50;4.00;;;11.20;99.90;;;;;;4961280;28;20051;-63
2023/12/10 10:03:16;;;;;;;33.65;4.85;;;11.40;99.90;;;;;;4960909;28;20450;-63
2023/12/10 10:05:41;;;;;;;31.23;3.97;;;11.50;99.90;;;;;;4963682;28;20118;-62
2023/12/10 10:08:07;;;;;;;29.55;4.10;;;11.40;99.90;;;;;;4967708;28;20031;-62
2023/12/10 10:10:32;;;;;;;34.20;4.53;;;11.40;99.90;;;;;;4968726;28;20508;-62
2023/12/10 10:12:59;;;;;;;20.45;3.17;;;11.40;99.90;;;;;;4967804;28;20038;-62
2023/12/10 10:15:30;;;;;;;22.08;3.33;;;11.40;99.90;;;;;;4967247;28;20027;-62
2023/12/10 10:17:57;;;;;;;29.02;4.57;;;11.50;99.90;;;;;;4963840;28;20027;-62
2023/12/10 10:20:24;;;;;;;25.33;4.13;;;11.50;99.90;;;;;;4967813;28;20068;-63
2023/12/10 10:22:50;;;;;;;28.95;4.63;;;11.60;99.90;;;;;;4969798;28;20034;-63
2023/12/10 10:25:17;;;;;;;23.35;3.00;;;11.70;99.90;;;;;;4970563;28;20031;-63
2023/12/10 10:27:42;;;;;;;28.75;3.60;;;11.60;99.90;;;;;;4968707;28;20489;-62
2023/12/10 10:30:08;;;;;;;24.52;3.55;;;11.60;99.90;;;;;;4957450;28;20081;-62
2023/12/10 10:32:34;;;;;;;27.67;4.22;;;11.50;99.90;;;;;;4962920;28;20034;-62
2023/12/10 10:35:04;;;;;;;21.75;3.33;;;11.40;99.90;;;;;;4965751;28;20045;-63
2023/12/10 10:37:30;;;;;;;31.42;5.03;;;11.40;99.90;;;;;;4968075;28;20118;-60
2023/12/10 10:39:56;;;;;;;35.75;4.95;;;11.40;99.90;;;;;;4968570;28;20113;-63
2023/12/10 10:42:22;;;;;;;26.85;3.53;;;11.40;99.90;;;;;;4967996;28;20022;-63
2023/12/10 10:44:48;;;;;;;27.92;4.38;;;11.40;99.90;;;;;;4966279;28;20046;-61
2023/12/10 10:47:15;;;;;;;41.10;4.65;;;11.40;99.90;;;;;;4969336;28;20092;-63
2023/12/10 10:49:55;;;;;;;29.13;3.75;;;11.40;99.90;;;;;;4958810;28;20040;-63
2023/12/10 10:52:24;;;;;;;24.85;3.63;;;11.40;99.90;;;;;;4968063;28;20061;-63
2023/12/10 10:54:54;;;;;;;31.42;4.25;;;11.40;99.90;;;;;;4963463;28;20030;-63
2023/12/10 10:57:35;;;;;;;25.90;3.70;;;11.40;99.90;;;;;;4968444;28;20053;-63
2023/12/10 11:00:20;;;;;;;32.97;3.92;;;11.30;99.90;;;;;;4965650;28;20038;-61
2023/12/10 11:02:46;;;;;;;;;;;11.30;99.90;;;;;;4967227;28;20066;-61
2023/12/10 11:05:21;;;;;;;32.63;3.60;;;11.40;99.90;;;;;;4967109;28;19964;-62
2023/12/10 11:07:48;;;;;;;20.88;3.33;;;11.60;99.90;;;;;;4965017;28;20058;-63
2023/12/10 11:10:13;;;;;;;32.70;4.30;;;11.70;99.90;;;;;;4966185;28;20326;-62
2023/12/10 11:12:39;;;;;;;28.27;5.03;;;11.80;99.90;;;;;;4966134;28;20500;-61
2023/12/10 11:15:05;;;;;;;30.13;3.58;;;12.00;99.90;;;;;;4964415;28;20034;-63
2023/12/10 11:17:31;;;;;;;32.40;5.78;;;12.10;99.90;;;;;;4962884;28;20428;-62
2023/12/10 11:19:59;;;;;;;24.98;3.63;;;12.00;99.90;;;;;;4964407;28;20117;-62
2023/12/10 11:22:25;;;;;;;33.47;4.30;;;12.00;99.90;;;;;;4964054;28;20437;-63
2023/12/10 11:24:50;;;;;;;20.95;3.78;;;12.20;99.90;;;;;;4964669;28;20031;-62
2023/12/10 11:27:16;;;;;;;29.63;4.43;;;12.30;99.90;;;;;;4972335;28;20031;-62
2023/12/10 11:29:41;;;;;;;39.33;5.38;;;12.20;99.90;;;;;;4970177;28;20033;-62
2023/12/10 11:32:07;;;;;;;40.80;4.80;;;12.20;99.90;;;;;;4971438;28;20023;-62
2023/12/10 11:34:33;;;;;;;40.42;4.93;;;12.10;99.90;;;;;;4965284;28;20031;-62
2023/12/10 11:36:59;;;;;;;26.33;4.47;;;12.00;99.90;;;;;;4963417;28;20027;-62
2023/12/10 11:39:25;;;;;;;25.42;3.95;;;11.90;99.90;;;;;;4970540;28;20089;-62
2023/12/10 11:41:51;;;;;;;37.30;4.68;;;11.90;99.90;;;;;;4971652;28;20034;-62
2023/12/10 11:44:16;;;;;;;27.65;4.38;;;11.90;99.90;;;;;;4969715;28;20031;-62
2023/12/10 11:46:46;;;;;;;27.98;4.00;;;12.00;99.90;;;;;;4965521;28;20284;-62
2023/12/10 11:49:11;;;;;;;24.17;3.65;;;12.00;99.90;;;;;;4969150;28;20134;-64
2023/12/10 11:51:40;;;;;;;25.05;3.38;;;12.00;99.90;;;;;;4970387;28;20066;-64
2023/12/10 11:54:07;;;;;;;32.88;3.88;;;12.10;99.90;;;;;;4966349;28;20026;-62
2023/12/10 11:56:33;;;;;;;30.73;3.70;;;12.10;99.90;;;;;;4971204;28;20027;-64
2023/12/10 11:58:59;;;;;;;29.48;2.78;;;12.00;99.90;;;;;;4965698;28;20097;-63
2023/12/10 12:01:25;;;;;;;30.90;3.97;;;12.00;99.90;;;;;;4967218;28;20081;-63
2023/12/10 12:03:53;;;;;;;25.05;3.85;;;12.00;99.90;;;;;;4966476;28;20348;-64
2023/12/10 12:06:18;;;;;;;23.95;4.45;;;12.10;99.90;;;;;;4965782;28;20027;-64
2023/12/10 12:08:44;;;;;;;34.95;4.57;;;12.00;99.90;;;;;;4971745;28;20045;-63
2023/12/10 12:11:10;;;;;;;32.88;4.57;;;12.00;99.90;;;;;;4968400;28;20031;-63
2023/12/10 12:13:36;;;;;;;34.92;3.60;;;12.00;99.90;;;;;;4968566;28;20034;-63
2023/12/10 12:16:05;;;;;;;27.90;3.65;;;12.00;99.90;;;;;;4966540;28;20090;-63
2023/12/10 12:18:30;;;;;;;36.70;4.22;;;12.00;99.90;;;;;;4971696;28;20018;-63
2023/12/10 12:20:56;;;;;;;28.73;4.22;;;12.10;99.90;;;;;;4969866;28;20516;-62
2023/12/10 12:23:21;;;;;;;45.92;6.85;;;12.10;99.90;;;;;;4971264;28;20552;-63
2023/12/10 12:25:47;;;;;;;37.80;5.32;;;12.10;99.90;;;;;;4966902;28;20053;-64
2023/12/10 12:28:13;;;;;;;33.08;4.50;;;12.00;99.90;;;;;;4966087;28;20408;-65
2023/12/10 12:30:38;;;;;;;42.42;5.32;;;12.00;99.90;;;;;;4966302;28;20034;-63
2023/12/10 12:33:04;;;;;;;34.40;4.47;;;12.00;99.90;;;;;;4966725;28;20043;-64